createdAt,value
2022-11-29T00:01:26.372Z,20.63
2022-11-29T00:03:53.817Z,21.90
2022-11-29T00:06:28.677Z,20.73
2022-11-29T00:08:56.485Z,24.93
2022-11-29T00:11:43.213Z,21.03
2022-11-29T00:14:12.147Z,23.23
2022-11-29T00:16:42.373Z,22.57
2022-11-29T00:19:10.358Z,21.80
2022-11-29T00:21:37.409Z,21.70
2022-11-29T00:24:04.582Z,23.10
2022-11-29T00:26:31.636Z,26.57
2022-11-29T00:28:58.697Z,22.60
2022-11-29T00:31:27.052Z,23.00
2022-11-29T00:33:54.371Z,26.23
2022-11-29T00:36:21.441Z,23.60
2022-11-29T00:38:48.504Z,19.17
2022-11-29T00:41:15.658Z,21.90
2022-11-29T00:43:42.919Z,31.73
2022-11-29T00:46:10.443Z,22.57
2022-11-29T00:48:38.092Z,24.33
2022-11-29T00:51:05.877Z,20.57
2022-11-29T00:53:33.602Z,31.00
2022-11-29T00:56:00.707Z,27.70
2022-11-29T00:58:28.244Z,28.00
2022-11-29T01:00:55.692Z,24.70
2022-11-29T01:03:23.324Z,25.00
2022-11-29T01:05:50.895Z,21.40
2022-11-29T01:08:18.036Z,26.93
2022-11-29T01:10:45.242Z,26.33
2022-11-29T01:13:12.668Z,24.57
2022-11-29T01:15:40.346Z,26.07
2022-11-29T01:18:07.426Z,26.30
2022-11-29T01:20:34.483Z,28.07
2022-11-29T01:23:01.547Z,27.40
2022-11-29T01:25:29.319Z,29.47
2022-11-29T01:27:56.341Z,25.90
2022-11-29T01:30:23.412Z,27.13
2022-11-29T01:32:50.540Z,25.10
2022-11-29T01:35:17.650Z,27.57
2022-11-29T01:37:44.701Z,25.77
2022-11-29T01:40:12.039Z,31.17
2022-11-29T01:42:39.099Z,25.07
2022-11-29T01:45:21.138Z,24.80
2022-11-29T01:47:50.030Z,29.30
2022-11-29T01:50:17.322Z,25.13
2022-11-29T01:52:44.667Z,34.67
2022-11-29T01:55:11.855Z,25.90
2022-11-29T01:57:40.469Z,28.73
2022-11-29T02:00:09.830Z,26.03
2022-11-29T02:02:39.451Z,27.93
2022-11-29T02:05:07.146Z,27.23
2022-11-29T02:07:34.373Z,28.57
2022-11-29T02:10:02.696Z,26.57
2022-11-29T02:12:41.729Z,31.03
2022-11-29T02:15:08.826Z,28.10
2022-11-29T02:17:54.836Z,33.77
2022-11-29T02:20:28.064Z,25.30
2022-11-29T02:22:55.101Z,23.60
2022-11-29T02:25:34.538Z,26.90
2022-11-29T02:28:04.474Z,26.43
2022-11-29T02:30:50.245Z,27.53
2022-11-29T02:33:29.591Z,28.87
2022-11-29T02:36:02.459Z,25.23
2022-11-29T02:38:35.365Z,24.73
2022-11-29T02:41:20.989Z,25.97
2022-11-29T02:43:48.042Z,28.53
2022-11-29T02:46:33.801Z,29.73
2022-11-29T02:49:10.590Z,24.87
2022-11-29T02:51:46.104Z,28.93
2022-11-29T02:54:20.336Z,26.07
2022-11-29T02:56:54.172Z,25.23
2022-11-29T02:59:24.205Z,23.00
2022-11-29T03:01:57.164Z,28.87
2022-11-29T03:04:24.185Z,26.93
2022-11-29T03:06:55.149Z,25.10
2022-11-29T03:09:45.038Z,24.43
2022-11-29T03:12:34.473Z,21.60
2022-11-29T03:15:27.880Z,24.53
2022-11-29T03:18:10.165Z,22.57
2022-11-29T03:20:50.060Z,25.87
2022-11-29T03:23:25.999Z,25.93
2022-11-29T03:25:59.850Z,21.03
2022-11-29T03:28:26.880Z,24.30
2022-11-29T03:31:14.275Z,27.27
2022-11-29T03:33:46.861Z,26.03
2022-11-29T03:36:21.139Z,22.57
2022-11-29T03:38:48.319Z,26.27
2022-11-29T03:41:21.194Z,30.07
2022-11-29T03:43:51.399Z,22.43
2022-11-29T03:46:30.146Z,22.93
2022-11-29T03:49:00.120Z,24.37
2022-11-29T03:51:32.176Z,25.07
2022-11-29T03:54:02.083Z,22.93
2022-11-29T03:56:32.074Z,26.47
2022-11-29T03:59:05.005Z,24.33
2022-11-29T04:01:50.688Z,26.40
2022-11-29T04:04:33.186Z,24.00
2022-11-29T04:07:00.191Z,25.27
2022-11-29T04:10:02.885Z,23.60
2022-11-29T04:12:48.792Z,27.60
2022-11-29T04:15:27.771Z,23.53
2022-11-29T04:18:13.059Z,26.60
2022-11-29T04:20:47.856Z,22.77
2022-11-29T04:23:33.948Z,27.40
2022-11-29T04:26:00.981Z,19.93
2022-11-29T04:28:36.956Z,25.33
2022-11-29T04:31:22.586Z,24.70
2022-11-29T04:34:08.469Z,24.67
2022-11-29T04:36:38.705Z,23.90
2022-11-29T04:39:05.713Z,26.00
2022-11-29T04:41:42.373Z,23.43
2022-11-29T04:44:12.319Z,22.40
2022-11-29T04:46:57.878Z,25.47
2022-11-29T04:49:24.936Z,20.37
2022-11-29T04:51:51.960Z,25.93
2022-11-29T04:54:32.071Z,21.80
2022-11-29T04:57:06.770Z,23.33
2022-11-29T04:59:49.889Z,20.13
2022-11-29T05:02:16.922Z,27.97
2022-11-29T05:04:59.087Z,27.43
2022-11-29T05:07:30.567Z,26.17
2022-11-29T05:10:03.825Z,28.47
2022-11-29T05:12:39.460Z,22.73
2022-11-29T05:15:25.472Z,28.77
2022-11-29T05:18:11.388Z,25.70
2022-11-29T05:20:50.434Z,21.40
2022-11-29T05:23:23.381Z,25.67
2022-11-29T05:25:53.274Z,21.90
2022-11-29T05:28:38.904Z,25.70
2022-11-29T05:31:24.802Z,27.43
2022-11-29T05:33:59.760Z,25.80
2022-11-29T05:36:45.502Z,24.07
2022-11-29T05:39:21.132Z,24.97
2022-11-29T05:41:55.930Z,20.93
2022-11-29T05:44:37.717Z,21.63
2022-11-29T05:47:05.914Z,22.70
2022-11-29T05:49:44.181Z,19.10
2022-11-29T05:52:14.020Z,21.13
2022-11-29T05:54:50.077Z,23.13
2022-11-29T05:57:23.013Z,22.37
2022-11-29T05:59:51.048Z,24.20
2022-11-29T06:02:24.992Z,27.63
2022-11-29T06:04:58.172Z,24.37
2022-11-29T06:07:33.505Z,27.27
2022-11-29T06:10:03.891Z,21.70
2022-11-29T06:12:31.899Z,19.53
2022-11-29T06:15:34.660Z,23.87
2022-11-29T06:18:01.720Z,28.43
2022-11-29T06:20:47.462Z,20.40
2022-11-29T06:23:33.415Z,21.73
2022-11-29T06:26:04.145Z,22.90
2022-11-29T06:28:50.303Z,24.60
2022-11-29T06:31:29.560Z,19.47
2022-11-29T06:33:56.692Z,21.20
2022-11-29T06:36:31.852Z,20.97
2022-11-29T06:38:59.145Z,23.90
2022-11-29T06:41:26.340Z,24.43
2022-11-29T06:43:53.561Z,19.73
2022-11-29T06:46:23.831Z,23.73
2022-11-29T06:49:02.244Z,20.90
2022-11-29T06:51:32.697Z,19.97
2022-11-29T06:54:15.043Z,19.33
2022-11-29T06:56:51.630Z,22.30
2022-11-29T06:59:29.305Z,22.63
2022-11-29T07:02:13.611Z,19.63
2022-11-29T07:04:45.733Z,23.23
2022-11-29T07:07:15.416Z,18.40
2022-11-29T07:09:43.730Z,21.63
2022-11-29T07:12:11.011Z,20.80
2022-11-29T07:14:38.240Z,22.73
2022-11-29T07:17:28.704Z,20.60
2022-11-29T07:19:58.864Z,20.07
2022-11-29T07:22:25.924Z,18.87
2022-11-29T07:25:11.826Z,19.77
2022-11-29T07:27:38.904Z,20.67
2022-11-29T07:30:17.606Z,21.27
2022-11-29T07:32:53.675Z,16.87
2022-11-29T07:35:33.350Z,23.80
2022-11-29T07:38:12.394Z,16.77
2022-11-29T07:40:42.422Z,15.53
2022-11-29T07:43:22.135Z,18.00
2022-11-29T07:45:49.380Z,19.43
2022-11-29T07:48:17.282Z,25.50
2022-11-29T07:50:45.276Z,20.67
2022-11-29T07:53:17.538Z,22.37
2022-11-29T07:55:44.774Z,20.70
2022-11-29T07:58:12.853Z,27.33
2022-11-29T08:00:40.276Z,24.07
2022-11-29T08:03:07.330Z,20.67
2022-11-29T08:05:34.470Z,19.83
2022-11-29T08:08:01.642Z,16.67
2022-11-29T08:10:29.006Z,17.10
2022-11-29T08:12:56.147Z,26.67
2022-11-29T08:15:23.706Z,16.17
2022-11-29T08:17:50.972Z,20.20
2022-11-29T08:20:18.179Z,20.07
2022-11-29T08:22:45.273Z,22.73
2022-11-29T08:25:12.856Z,21.43
2022-11-29T08:27:39.970Z,18.87
2022-11-29T08:30:07.505Z,19.03
2022-11-29T08:32:35.162Z,16.77
2022-11-29T08:35:02.231Z,23.70
2022-11-29T08:37:29.400Z,20.07
2022-11-29T08:39:58.218Z,19.73
2022-11-29T08:42:25.340Z,16.50
2022-11-29T08:44:52.376Z,19.53
2022-11-29T08:47:37.807Z,17.17
2022-11-29T08:50:16.720Z,15.97
2022-11-29T08:53:06.510Z,17.83
2022-11-29T08:55:34.984Z,19.63
2022-11-29T08:58:06.914Z,16.37
2022-11-29T09:00:34.291Z,16.90
2022-11-29T09:03:23.538Z,16.90
2022-11-29T09:05:50.851Z,18.23
2022-11-29T09:08:18.021Z,18.27
2022-11-29T09:10:45.328Z,19.80
2022-11-29T09:13:12.650Z,20.00
2022-11-29T09:15:41.783Z,16.63
2022-11-29T09:18:08.854Z,14.83
2022-11-29T09:20:35.950Z,20.10
2022-11-29T09:23:03.080Z,17.37
2022-11-29T09:25:30.148Z,16.27
2022-11-29T09:27:58.609Z,16.57
2022-11-29T09:30:26.409Z,20.30
2022-11-29T09:32:53.507Z,16.63
2022-11-29T09:35:20.583Z,17.80
2022-11-29T09:37:47.650Z,18.03
2022-11-29T09:40:23.371Z,16.93
2022-11-29T09:42:50.410Z,18.17
2022-11-29T09:45:20.021Z,13.73
2022-11-29T09:48:06.130Z,15.83
2022-11-29T09:50:36.190Z,17.93
2022-11-29T09:53:21.407Z,14.33
2022-11-29T09:56:17.792Z,15.73
2022-11-29T09:58:58.313Z,14.53
2022-11-29T10:01:27.561Z,13.73
2022-11-29T10:03:56.360Z,15.27
2022-11-29T10:06:26.601Z,15.90
2022-11-29T10:08:53.643Z,15.60
2022-11-29T10:11:33.828Z,18.93
2022-11-29T10:14:03.644Z,14.63
2022-11-29T10:16:40.179Z,18.10
2022-11-29T10:19:15.114Z,15.43
2022-11-29T10:21:44.385Z,12.90
2022-11-29T10:24:14.719Z,15.37
2022-11-29T10:26:43.417Z,16.07
2022-11-29T10:29:14.609Z,13.37
2022-11-29T10:31:44.069Z,14.23
2022-11-29T10:34:14.240Z,17.50
2022-11-29T10:36:41.363Z,16.47
2022-11-29T10:39:14.755Z,16.00
2022-11-29T10:41:42.048Z,16.10
2022-11-29T10:44:11.226Z,21.13
2022-11-29T10:46:39.173Z,16.00
2022-11-29T10:49:07.861Z,18.67
2022-11-29T10:51:35.218Z,17.00
2022-11-29T10:54:15.626Z,20.53
2022-11-29T10:56:43.649Z,19.77
2022-11-29T10:59:20.032Z,18.83
2022-11-29T11:01:47.287Z,21.23
2022-11-29T11:04:29.496Z,19.80
2022-11-29T11:06:57.800Z,20.10
2022-11-29T11:09:34.143Z,18.47
2022-11-29T11:12:02.626Z,17.93
2022-11-29T11:14:29.660Z,16.93
2022-11-29T11:16:57.216Z,20.07
2022-11-29T11:19:27.854Z,19.07
2022-11-29T11:21:58.845Z,21.33
2022-11-29T11:24:28.718Z,20.67
2022-11-29T11:26:55.932Z,19.03
2022-11-29T11:29:25.099Z,20.40
2022-11-29T11:31:59.075Z,21.50
2022-11-29T11:34:28.333Z,20.03
2022-11-29T11:37:11.726Z,18.60
2022-11-29T11:39:38.813Z,19.90
2022-11-29T11:42:24.654Z,22.67
2022-11-29T11:44:53.319Z,20.80
2022-11-29T11:47:22.147Z,21.23
2022-11-29T11:49:55.248Z,17.60
2022-11-29T11:52:22.269Z,19.20
2022-11-29T11:54:52.572Z,27.30
2022-11-29T11:57:19.818Z,20.93
2022-11-29T11:59:50.719Z,17.70
2022-11-29T12:02:36.364Z,23.43
2022-11-29T12:05:05.665Z,20.13
2022-11-29T12:08:09.855Z,20.33
2022-11-29T12:10:39.737Z,19.00
2022-11-29T12:13:07.844Z,21.20
2022-11-29T12:15:41.437Z,21.93
2022-11-29T12:18:27.398Z,20.87
2022-11-29T12:21:00.662Z,17.80
2022-11-29T12:23:44.131Z,20.27
2022-11-29T12:26:13.638Z,24.70
2022-11-29T12:28:46.840Z,17.83
2022-11-29T12:31:31.525Z,17.33
2022-11-29T12:34:13.938Z,22.43
2022-11-29T12:36:46.770Z,17.47
2022-11-29T12:39:13.844Z,21.83
2022-11-29T12:41:53.979Z,24.80
2022-11-29T12:44:44.737Z,24.20
2022-11-29T12:47:35.741Z,20.53
2022-11-29T12:50:25.948Z,19.70
2022-11-29T12:53:16.035Z,24.33
2022-11-29T12:56:01.354Z,19.33
2022-11-29T12:58:54.573Z,20.57
2022-11-29T13:01:27.860Z,22.20
2022-11-29T13:03:55.038Z,20.70
2022-11-29T13:06:28.504Z,20.33
2022-11-29T13:09:10.695Z,18.97
2022-11-29T13:11:41.049Z,19.77
2022-11-29T13:17:31.455Z,21.43
2022-11-29T13:20:04.757Z,22.47
2022-11-29T13:22:44.808Z,19.90
2022-11-29T13:25:15.599Z,22.20
2022-11-29T13:27:45.411Z,22.00
2022-11-29T13:30:16.186Z,21.43
2022-11-29T13:32:58.497Z,22.70
2022-11-29T13:35:30.993Z,30.13
2022-11-29T13:38:09.846Z,27.20
2022-11-29T13:40:37.304Z,27.13
2022-11-29T13:43:07.350Z,24.20
2022-11-29T13:45:37.490Z,31.53
2022-11-29T13:48:27.668Z,24.83
2022-11-29T13:50:56.566Z,25.03
2022-11-29T13:53:48.658Z,29.53
2022-11-29T13:56:51.562Z,27.43
2022-11-29T13:59:32.172Z,23.97
2022-11-29T14:01:59.787Z,28.77
2022-11-29T14:04:53.146Z,28.93
2022-11-29T14:07:20.427Z,22.47
2022-11-29T14:09:53.070Z,26.13
2022-11-29T14:12:25.982Z,28.80
2022-11-29T14:14:56.295Z,23.67
2022-11-29T14:17:34.167Z,24.90
2022-11-29T14:20:28.356Z,26.53
2022-11-29T14:23:04.663Z,26.73
2022-11-29T14:25:51.115Z,26.73
2022-11-29T14:28:18.915Z,30.40
2022-11-29T14:30:46.142Z,28.23
2022-11-29T14:33:13.180Z,24.93
2022-11-29T14:35:44.242Z,28.53
2022-11-29T14:38:31.218Z,26.43
2022-11-29T14:40:58.375Z,27.33
2022-11-29T14:43:30.082Z,23.20
2022-11-29T14:46:12.489Z,26.97
2022-11-29T14:48:39.822Z,30.93
2022-11-29T14:51:11.709Z,27.33
2022-11-29T14:53:39.403Z,30.07
2022-11-29T14:56:25.273Z,27.07
2022-11-29T14:59:11.063Z,27.90
2022-11-29T15:01:42.555Z,20.33
2022-11-29T15:04:10.448Z,26.77
2022-11-29T15:06:44.050Z,22.47
2022-11-29T15:09:17.729Z,25.63
2022-11-29T15:11:58.438Z,29.20
2022-11-29T15:14:44.798Z,25.33
2022-11-29T15:17:24.472Z,28.13
2022-11-29T15:19:51.582Z,25.07
2022-11-29T15:22:36.949Z,21.53
2022-11-29T15:25:10.673Z,28.87
2022-11-29T15:27:40.245Z,21.70
2022-11-29T15:30:20.525Z,25.03
2022-11-29T15:32:47.732Z,25.97
2022-11-29T15:35:18.704Z,29.97
2022-11-29T15:37:46.815Z,30.90
2022-11-29T15:40:16.012Z,26.63
2022-11-29T15:42:43.118Z,37.13
2022-11-29T15:45:26.517Z,30.27
2022-11-29T15:47:53.998Z,28.40
2022-11-29T15:50:29.248Z,26.87
2022-11-29T15:52:59.861Z,28.63
2022-11-29T15:55:27.700Z,32.33
2022-11-29T15:57:56.627Z,29.97
2022-11-29T16:00:25.574Z,29.70
2022-11-29T16:02:58.474Z,36.67
2022-11-29T16:05:35.612Z,35.70
2022-11-29T16:08:05.027Z,33.93
2022-11-29T16:10:43.455Z,36.87
2022-11-29T16:13:30.744Z,32.80
2022-11-29T16:16:10.360Z,29.63
2022-11-29T16:18:40.631Z,26.20
2022-11-29T16:21:08.583Z,34.23
2022-11-29T16:23:36.536Z,32.90
2022-11-29T16:26:12.791Z,33.47
2022-11-29T16:28:47.244Z,32.93
2022-11-29T16:31:18.722Z,30.77
2022-11-29T16:33:47.442Z,35.53
2022-11-29T16:36:19.527Z,34.63
2022-11-29T16:38:47.915Z,30.27
2022-11-29T16:41:23.064Z,31.70
2022-11-29T16:43:53.602Z,28.47
2022-11-29T16:46:20.719Z,27.07
2022-11-29T16:48:51.119Z,29.33
2022-11-29T16:51:33.386Z,28.00
2022-11-29T16:54:19.920Z,28.30
2022-11-29T16:56:47.021Z,29.80
2022-11-29T16:59:21.065Z,25.70
2022-11-29T17:01:55.447Z,28.07
2022-11-29T17:04:23.641Z,33.63
2022-11-29T17:06:52.692Z,30.10
2022-11-29T17:09:31.375Z,32.63
2022-11-29T17:12:01.957Z,28.07
2022-11-29T17:14:29.743Z,29.47
2022-11-29T17:16:56.916Z,30.93
2022-11-29T17:19:24.561Z,27.43
2022-11-29T17:21:52.894Z,28.97
2022-11-29T17:24:20.773Z,26.87
2022-11-29T17:26:47.821Z,22.07
2022-11-29T17:29:15.856Z,28.10
2022-11-29T17:31:46.536Z,28.03
2022-11-29T17:34:13.788Z,39.30
2022-11-29T17:36:40.921Z,27.60
2022-11-29T17:39:08.053Z,33.87
2022-11-29T17:41:35.350Z,30.73
2022-11-29T17:44:02.451Z,27.23
2022-11-29T17:46:30.733Z,25.20
2022-11-29T17:48:59.719Z,24.10
2022-11-29T17:51:51.086Z,25.60
2022-11-29T17:54:13.958Z,25.67
2022-11-29T17:56:41.049Z,28.70
2022-11-29T17:59:08.100Z,31.47
2022-11-29T18:01:36.737Z,32.00
2022-11-29T18:04:05.227Z,23.13
2022-11-29T18:06:35.716Z,34.23
2022-11-29T18:09:04.103Z,32.67
2022-11-29T18:11:41.639Z,27.93
2022-11-29T18:14:12.877Z,27.07
2022-11-29T18:16:40.190Z,31.67
2022-11-29T18:19:08.691Z,27.07
2022-11-29T18:21:36.163Z,33.23
2022-11-29T18:24:04.576Z,30.50
2022-11-29T18:26:32.744Z,33.37
2022-11-29T18:29:00.224Z,30.43
2022-11-29T18:31:28.511Z,30.73
2022-11-29T18:33:57.816Z,37.60
2022-11-29T18:36:26.578Z,35.50
2022-11-29T18:38:57.825Z,27.67
2022-11-29T18:41:25.644Z,31.87
2022-11-29T18:43:57.813Z,29.83
2022-11-29T18:46:25.498Z,28.57
2022-11-29T18:48:52.854Z,33.27
2022-11-29T18:51:20.984Z,35.07
2022-11-29T18:53:48.097Z,33.33
2022-11-29T18:56:16.720Z,28.20
2022-11-29T18:58:44.377Z,39.60
2022-11-29T19:01:13.105Z,30.13
2022-11-29T19:03:41.285Z,30.57
2022-11-29T19:06:10.032Z,31.73
2022-11-29T19:08:37.246Z,35.07
2022-11-29T19:11:05.049Z,33.93
2022-11-29T19:13:32.171Z,36.50
2022-11-29T19:15:59.317Z,37.03
2022-11-29T19:18:26.472Z,39.00
2022-11-29T19:20:53.606Z,32.70
2022-11-29T19:23:21.373Z,33.40
2022-11-29T19:25:48.535Z,37.77
2022-11-29T19:28:15.603Z,37.63
2022-11-29T19:30:42.790Z,40.10
2022-11-29T19:33:09.980Z,41.70
2022-11-29T19:35:37.103Z,38.57
2022-11-29T19:38:04.184Z,33.67
2022-11-29T19:40:31.289Z,35.50
2022-11-29T19:42:58.335Z,36.67
2022-11-29T19:45:25.378Z,40.00
2022-11-29T19:47:52.401Z,37.10
2022-11-29T19:50:19.463Z,35.43
2022-11-29T19:52:46.509Z,42.33
2022-11-29T19:55:13.650Z,40.93
2022-11-29T19:57:40.819Z,35.47
2022-11-29T20:00:08.347Z,37.57
2022-11-29T20:02:35.468Z,28.33
2022-11-29T20:05:02.571Z,38.43
2022-11-29T20:07:29.681Z,35.43
2022-11-29T20:09:56.808Z,38.13
2022-11-29T20:12:23.845Z,42.57
2022-11-29T20:14:50.896Z,36.17
2022-11-29T20:17:18.124Z,38.43
2022-11-29T20:19:45.788Z,35.20
2022-11-29T20:22:13.153Z,38.27
2022-11-29T20:24:45.170Z,35.73
2022-11-29T20:27:12.736Z,34.60
2022-11-29T20:29:41.037Z,31.43
2022-11-29T20:32:08.102Z,31.00
2022-11-29T20:34:35.339Z,31.80
2022-11-29T20:37:21.051Z,35.03
2022-11-29T20:40:02.390Z,35.37
2022-11-29T20:42:29.541Z,31.23
2022-11-29T20:45:00.421Z,32.87
2022-11-29T20:47:47.795Z,33.27
2022-11-29T20:50:23.815Z,31.40
2022-11-29T20:53:10.068Z,24.60
2022-11-29T20:55:42.457Z,33.90
2022-11-29T20:58:13.580Z,30.07
2022-11-29T21:00:40.689Z,27.77
2022-11-29T21:03:07.713Z,29.67
2022-11-29T21:05:37.411Z,25.60
2022-11-29T21:08:04.566Z,27.23
2022-11-29T21:10:31.661Z,29.43
2022-11-29T21:12:58.798Z,33.57
2022-11-29T21:15:26.046Z,29.43
2022-11-29T21:17:53.501Z,27.63
2022-11-29T21:20:24.590Z,26.70
2022-11-29T21:22:54.785Z,32.60
2022-11-29T21:25:36.907Z,29.83
2022-11-29T21:28:08.179Z,29.40
2022-11-29T21:30:35.404Z,30.33
2022-11-29T21:33:02.895Z,32.40
2022-11-29T21:35:29.909Z,25.63
2022-11-29T21:37:59.121Z,27.10
2022-11-29T21:40:26.246Z,24.43
2022-11-29T21:42:53.311Z,22.80
2022-11-29T21:45:20.391Z,28.80
2022-11-29T21:47:47.462Z,26.40
2022-11-29T21:50:14.533Z,21.47
2022-11-29T21:52:41.932Z,21.37
2022-11-29T21:55:09.354Z,29.17
2022-11-29T21:57:36.450Z,24.93
2022-11-29T22:00:03.789Z,30.20
2022-11-29T22:02:30.955Z,25.73
2022-11-29T22:04:58.082Z,26.57
2022-11-29T22:07:25.247Z,20.80
2022-11-29T22:09:52.437Z,26.03
2022-11-29T22:12:33.602Z,24.43
2022-11-29T22:15:01.635Z,20.83
2022-11-29T22:17:28.730Z,24.43
2022-11-29T22:19:55.757Z,24.93
2022-11-29T22:22:23.649Z,27.27
2022-11-29T22:24:53.016Z,24.47
2022-11-29T22:27:21.087Z,24.43
2022-11-29T22:29:48.746Z,23.03
2022-11-29T22:32:15.807Z,28.77
2022-11-29T22:34:42.908Z,21.73
2022-11-29T22:37:10.005Z,25.30
2022-11-29T22:39:37.052Z,22.97
2022-11-29T22:42:04.160Z,23.70
2022-11-29T22:44:31.306Z,19.53
2022-11-29T22:46:58.394Z,25.33
2022-11-29T22:49:25.528Z,18.37
2022-11-29T22:51:53.291Z,23.00
2022-11-29T22:54:20.416Z,19.27
2022-11-29T22:56:47.750Z,22.27
2022-11-29T22:59:14.909Z,21.97
2022-11-29T23:01:42.460Z,18.20
2022-11-29T23:04:10.061Z,21.47
2022-11-29T23:06:38.657Z,27.57
2022-11-29T23:09:10.637Z,20.13
2022-11-29T23:11:37.739Z,24.80
2022-11-29T23:14:05.049Z,21.83
2022-11-29T23:16:32.902Z,24.33
2022-11-29T23:19:00.435Z,23.50
2022-11-29T23:21:28.949Z,27.20
2022-11-29T23:23:56.913Z,21.50
2022-11-29T23:26:25.909Z,22.80
2022-11-29T23:28:53.556Z,23.07
2022-11-29T23:31:21.396Z,20.73
2022-11-29T23:33:48.710Z,21.70
2022-11-29T23:36:16.693Z,21.87
2022-11-29T23:38:44.182Z,18.67
2022-11-29T23:41:11.708Z,23.23
2022-11-29T23:43:40.229Z,21.47
2022-11-29T23:46:12.887Z,16.73
2022-11-29T23:48:40.076Z,20.67
2022-11-29T23:51:07.192Z,21.37
2022-11-29T23:53:34.418Z,20.60
2022-11-29T23:56:03.404Z,21.50
2022-11-29T23:58:31.119Z,23.43
